Time;durP1;ratioP1;P1;durP2;ratioP2;P2;SDS_P1;SDS_P2;PMS_P1;PMS_P2;Temp;Humidity;BMP_temperature;BMP_pressure;BME280_temperature;BME280_humidity;BME280_pressure;Samples;Min_cycle;Max_cycle;Signal;HPM_P1;HPM_P2
2023/08/04 00:01:19;;;;;;;7.20;3.17;;;;;;;23.70;75.48;99369.47;6249915;28;20132;-74
2023/08/04 00:04:20;;;;;;;4.73;3.20;;;;;;;23.83;74.13;99374.91;6249767;28;20490;-74
2023/08/04 00:07:21;;;;;;;4.30;3.03;;;;;;;23.97;74.69;99369.66;6249855;28;20484;-73
2023/08/04 00:10:24;;;;;;;3.70;2.83;;;;;;;23.91;74.38;99374.75;6249570;28;20056;-73
2023/08/04 00:13:25;;;;;;;4.38;3.10;;;;;;;24.00;74.71;99367.41;6250765;28;20053;-74
2023/08/04 00:16:26;;;;;;;5.37;3.23;;;;;;;24.01;74.70;99366.41;6266400;28;20057;-74
2023/08/04 00:19:29;;;;;;;4.70;3.03;;;;;;;23.81;75.68;99358.31;6249515;28;20061;-73
2023/08/04 00:22:30;;;;;;;3.92;3.13;;;;;;;23.39;79.58;99364.53;6250523;28;20041;-73
2023/08/04 00:25:30;;;;;;;11.63;3.30;;;;;;;23.32;80.88;99352.00;6249394;28;20547;-74
2023/08/04 00:28:31;;;;;;;5.07;3.53;;;;;;;23.18;81.43;99344.13;6265747;28;20123;-74
2023/08/04 00:31:32;;;;;;;5.30;3.13;;;;;;;23.08;81.90;99339.13;6250320;28;20136;-74
2023/08/04 00:34:35;;;;;;;4.20;3.03;;;;;;;23.05;82.85;99332.34;6248820;28;20056;-73
2023/08/04 00:37:35;;;;;;;3.35;2.95;;;;;;;23.05;83.50;99337.69;6249359;28;20057;-74
2023/08/04 00:40:36;;;;;;;4.77;3.33;;;;;;;23.03;84.04;99345.03;6248940;28;20045;-73
2023/08/04 00:43:37;;;;;;;4.87;3.33;;;;;;;23.04;84.12;99349.34;6250269;28;20470;-73
2023/08/04 00:46:38;;;;;;;4.30;3.37;;;;;;;23.06;83.92;99346.47;6265441;28;20123;-73
2023/08/04 00:49:40;;;;;;;6.28;3.65;;;;;;;23.02;84.28;99337.22;6249019;28;20056;-73
2023/08/04 00:52:41;;;;;;;;;;;;;;;23.06;85.03;99335.84;6250332;28;20095;-73
2023/08/04 00:55:42;;;;;;;4.13;3.05;;;;;;;23.19;85.34;99330.63;6249793;28;19925;-74
2023/08/04 00:58:42;;;;;;;3.78;3.22;;;;;;;23.24;86.51;99336.19;6248798;28;20117;-74
2023/08/04 01:01:43;;;;;;;5.87;3.13;;;;;;;23.24;86.46;99332.72;6249617;28;20045;-73
2023/08/04 01:04:44;;;;;;;4.87;3.37;;;;;;;23.23;86.38;99336.41;6247731;28;20575;-74
2023/08/04 01:08:16;;;;;;;6.10;3.53;;;;;;;23.25;85.79;99340.50;6248543;28;20045;-74
2023/08/04 01:11:20;;;;;;;5.78;3.78;;;;;;;23.29;86.08;99332.97;6249588;28;20052;-74
2023/08/04 01:14:22;;;;;;;4.35;3.47;;;;;;;23.27;86.06;99342.97;6249867;28;20049;-74
2023/08/04 01:17:27;;;;;;;5.15;3.70;;;;;;;23.25;87.20;99348.50;6248363;28;20052;-73
2023/08/04 01:20:28;;;;;;;5.10;3.67;;;;;;;23.08;87.45;99355.94;6249226;28;20056;-74
2023/08/04 01:23:29;;;;;;;3.93;3.07;;;;;;;22.91;89.35;99373.13;6249408;28;20053;-73
2023/08/04 01:26:35;;;;;;;5.13;3.57;;;;;;;22.83;91.36;99394.53;6249211;28;20049;-73
2023/08/04 01:29:35;;;;;;;5.65;3.80;;;;;;;22.48;93.13;99420.94;6247895;28;20480;-74
2023/08/04 01:32:36;;;;;;;6.33;2.60;;;;;;;22.28;86.71;99421.53;6247703;28;20046;-73
2023/08/04 01:35:37;;;;;;;7.83;2.57;;;;;;;22.63;85.92;99399.63;6247768;28;20057;-73
2023/08/04 01:38:38;;;;;;;5.93;3.03;;;;;;;22.61;83.97;99397.16;6264262;28;20049;-74
2023/08/04 01:41:39;;;;;;;3.47;2.40;;;;;;;22.73;82.87;99384.19;6248789;28;20136;-73
2023/08/04 01:44:39;;;;;;;3.60;2.10;;;;;;;22.53;81.47;99374.19;6247428;28;20049;-73
2023/08/04 01:47:41;;;;;;;7.93;2.70;;;;;;;22.67;80.35;99384.94;6247438;28;20049;-74
2023/08/04 01:50:42;;;;;;;4.82;2.78;;;;;;;22.74;80.43;99377.88;6248607;28;20136;-74
2023/08/04 01:53:43;;;;;;;2.90;2.20;;;;;;;22.64;79.21;99366.72;6248402;28;20076;-73
2023/08/04 01:56:44;;;;;;;3.53;2.50;;;;;;;22.51;79.38;99362.09;6247487;28;20494;-73
2023/08/04 01:59:45;;;;;;;2.13;1.93;;;;;;;22.53;79.47;99344.94;6247243;28;20049;-73
2023/08/04 02:02:48;;;;;;;3.93;2.03;;;;;;;22.60;79.83;99344.19;6247324;28;20053;-73
2023/08/04 02:05:48;;;;;;;2.53;2.15;;;;;;;22.45;81.49;99345.06;6248236;28;20061;-73
2023/08/04 02:08:49;;;;;;;3.13;2.27;;;;;;;22.84;78.86;99341.16;6247213;28;20049;-73
2023/08/04 02:11:53;;;;;;;3.53;2.40;;;;;;;22.96;79.26;99340.63;6247941;28;20513;-73
2023/08/04 02:14:54;;;;;;;4.90;2.40;;;;;;;22.98;77.10;99339.44;6247920;28;20056;-73
2023/08/04 02:17:54;;;;;;;3.27;2.20;;;;;;;23.12;77.00;99335.06;6246028;28;20390;-73
2023/08/04 02:20:55;;;;;;;4.20;2.37;;;;;;;23.24;76.27;99340.69;6263226;28;20077;-73
2023/08/04 02:23:56;;;;;;;2.73;2.20;;;;;;;23.28;74.96;99336.63;6263295;28;20049;-73
2023/08/04 02:26:59;;;;;;;4.13;2.30;;;;;;;23.20;75.18;99334.09;6246553;28;20141;-73
2023/08/04 02:30:00;;;;;;;2.97;2.10;;;;;;;23.19;75.06;99327.97;6263118;28;20056;-74
2023/08/04 02:33:00;;;;;;;3.97;2.30;;;;;;;23.23;74.85;99344.38;6246437;28;20054;-73
2023/08/04 02:36:02;;;;;;;3.43;2.20;;;;;;;23.12;75.60;99341.22;6246199;28;20063;-73
2023/08/04 02:39:03;;;;;;;3.92;2.42;;;;;;;23.23;75.67;99341.72;6247537;28;20099;-70
2023/08/04 02:42:04;;;;;;;2.43;1.87;;;;;;;23.27;77.66;99358.94;6247409;28;20504;-74
2023/08/04 02:45:05;;;;;;;6.07;2.40;;;;;;;23.19;77.38;99362.56;6263006;28;20049;-74
2023/08/04 02:48:06;;;;;;;;;;;;;;;23.19;79.00;99370.53;6247664;28;20046;-73
2023/08/04 02:51:12;;;;;;;3.83;2.10;;;;;;;23.23;80.38;99368.34;6247284;28;19983;-74
2023/08/04 02:54:13;;;;;;;3.38;2.55;;;;;;;23.22;83.74;99370.16;6245795;28;20053;-74
2023/08/04 02:57:13;;;;;;;3.73;2.60;;;;;;;23.24;84.37;99362.78;6247154;28;20512;-71
2023/08/04 03:00:14;;;;;;;3.63;2.20;;;;;;;22.76;88.71;99354.56;6245703;28;20300;-74
2023/08/04 03:03:15;;;;;;;2.97;2.40;;;;;;;22.54;88.51;99343.91;6247166;28;20064;-73
2023/08/04 03:06:16;;;;;;;3.88;2.45;;;;;;;22.52;93.31;99337.13;6245694;28;20049;-73
2023/08/04 03:09:17;;;;;;;3.47;2.47;;;;;;;22.54;93.14;99351.88;6246694;28;20052;-70
2023/08/04 03:12:17;;;;;;;3.13;2.20;;;;;;;22.41;94.09;99361.56;6246758;28;20045;-74
2023/08/04 03:15:20;;;;;;;3.47;2.60;;;;;;;22.22;95.82;99347.00;6245379;28;20164;-74
2023/08/04 03:18:21;;;;;;;2.90;2.33;;;;;;;22.04;100.00;99350.06;6246792;28;20050;-75
2023/08/04 03:21:24;;;;;;;5.80;3.10;;;;;;;21.93;100.00;99354.00;6245332;28;20107;-72
2023/08/04 03:24:25;;;;;;;4.20;2.30;;;;;;;21.91;100.00;99350.72;6246513;28;20462;-72
2023/08/04 03:27:27;;;;;;;3.03;2.10;;;;;;;21.71;100.00;99345.94;6245200;28;20053;-72
2023/08/04 03:30:27;;;;;;;;;;;;;;;21.65;100.00;99346.66;6245841;28;20096;-72
2023/08/04 03:33:31;;;;;;;6.25;2.47;;;;;;;21.73;100.00;99346.56;6261678;28;20515;-72
2023/08/04 03:36:31;;;;;;;4.80;2.33;;;;;;;21.81;100.00;99344.84;6261338;28;20130;-72
2023/08/04 03:39:32;;;;;;;3.83;3.20;;;;;;;21.78;100.00;99334.59;6246284;28;20493;-75
2023/08/04 03:42:35;;;;;;;5.20;3.00;;;;;;;21.88;100.00;99332.47;6246196;28;20050;-75
2023/08/04 03:45:40;;;;;;;3.33;2.72;;;;;;;21.82;100.00;99323.41;6261410;28;20568;-74
2023/08/04 03:48:42;;;;;;;3.85;2.80;;;;;;;21.92;100.00;99325.78;6246242;28;20187;-73
2023/08/04 03:51:45;;;;;;;4.80;3.10;;;;;;;21.80;100.00;99335.22;6246255;28;20054;-74
2023/08/04 03:54:46;;;;;;;3.83;2.97;;;;;;;21.55;100.00;99342.63;6246043;28;20498;-72
2023/08/04 03:57:47;;;;;;;4.23;2.93;;;;;;;21.67;100.00;99349.16;6245142;28;20053;-74
2023/08/04 04:00:48;;;;;;;3.80;3.37;;;;;;;21.68;100.00;99354.28;6261467;28;20073;-75
2023/08/04 04:03:48;;;;;;;7.20;3.67;;;;;;;21.58;100.00;99353.72;6246053;28;20140;-74
2023/08/04 04:06:49;;;;;;;4.50;3.23;;;;;;;21.66;100.00;99353.63;6244825;28;20505;-74
2023/08/04 04:09:52;;;;;;;8.10;3.90;;;;;;;21.69;100.00;99357.75;6245044;28;20050;-74
2023/08/04 04:12:53;;;;;;;5.05;3.53;;;;;;;21.62;100.00;99362.13;6261392;28;20073;-72
2023/08/04 04:15:53;;;;;;;4.20;3.30;;;;;;;21.53;100.00;99375.47;6244692;28;20060;-74
2023/08/04 04:18:54;;;;;;;6.30;3.40;;;;;;;21.57;100.00;99383.91;6246159;28;20420;-71
2023/08/04 04:21:55;;;;;;;5.33;3.23;;;;;;;21.59;100.00;99386.41;6245983;28;20060;-73
2023/08/04 04:24:55;;;;;;;4.57;3.67;;;;;;;21.60;100.00;99394.19;6245841;28;20049;-71
2023/08/04 04:27:56;;;;;;;4.53;3.50;;;;;;;21.67;100.00;99384.47;6261188;28;20490;-74
2023/08/04 04:31:05;;;;;;;7.30;3.90;;;;;;;21.70;100.00;99372.66;6244821;28;20049;-74
2023/08/04 04:34:08;;;;;;;6.43;4.10;;;;;;;21.67;100.00;99368.53;6261151;28;20046;-74
2023/08/04 04:37:11;;;;;;;5.35;3.50;;;;;;;21.60;100.00;99380.06;6245457;28;20463;-71
2023/08/04 04:40:13;;;;;;;4.65;3.42;;;;;;;21.62;100.00;99386.88;6246789;28;20054;-71
2023/08/04 04:43:13;;;;;;;6.87;3.77;;;;;;;21.64;100.00;99405.25;6250339;28;20111;-74
2023/08/04 04:46:14;;;;;;;4.93;3.57;;;;;;;21.47;100.00;99407.22;6249013;28;20060;-71
2023/08/04 04:49:16;;;;;;;5.70;3.97;;;;;;;21.34;100.00;99399.84;6250118;28;20056;-74
2023/08/04 04:52:35;;;;;;;5.85;2.90;;;;;;;21.48;100.00;99398.28;6282009;28;20052;-74
2023/08/04 04:55:36;;;;;;;5.47;2.97;;;;;;;21.58;100.00;99404.16;6248822;28;20053;-71
2023/08/04 04:58:37;;;;;;;4.60;3.10;;;;;;;21.61;100.00;99398.47;6249959;28;20064;-71
2023/08/04 05:01:37;;;;;;;4.70;3.13;;;;;;;21.70;100.00;99400.06;6248495;28;20129;-74
2023/08/04 05:04:40;;;;;;;3.97;3.00;;;;;;;21.70;100.00;99401.88;6249766;28;20049;-71
2023/08/04 05:07:41;;;;;;;5.35;3.08;;;;;;;21.58;100.00;99406.81;6248333;28;20099;-71
2023/08/04 05:10:42;;;;;;;3.10;2.50;;;;;;;21.71;100.00;99400.88;6264971;28;20140;-71
2023/08/04 05:13:42;;;;;;;6.57;2.93;;;;;;;21.71;100.00;99411.50;6249895;28;20143;-72
2023/08/04 05:16:45;;;;;;;3.90;2.40;;;;;;;21.77;100.00;99415.25;6249435;28;20119;-71
2023/08/04 05:19:45;;;;;;;2.80;2.50;;;;;;;21.76;100.00;99426.88;6248216;28;20067;-74
2023/08/04 05:22:46;;;;;;;3.07;2.20;;;;;;;21.57;100.00;99428.22;6249475;28;20485;-74
2023/08/04 05:25:47;;;;;;;4.07;2.70;;;;;;;21.34;100.00;99432.50;6249324;28;20045;-74
2023/08/04 05:28:48;;;;;;;3.85;2.55;;;;;;;21.60;100.00;99430.50;6247915;28;20053;-71
2023/08/04 05:31:51;;;;;;;6.20;2.40;;;;;;;21.52;100.00;99423.47;6249113;28;20128;-71
2023/08/04 05:34:54;;;;;;;3.20;2.28;;;;;;;21.91;100.00;99433.03;6247536;28;20065;-71
2023/08/04 05:37:55;;;;;;;5.25;2.45;;;;;;;22.01;100.00;99430.94;6249206;28;20143;-71
2023/08/04 05:41:01;;;;;;;3.70;2.30;;;;;;;22.25;100.00;99434.34;6248842;28;20045;-71
2023/08/04 05:44:04;;;;;;;3.72;2.20;;;;;;;22.46;100.00;99426.41;6248949;28;20049;-74
2023/08/04 05:47:05;;;;;;;5.55;2.35;;;;;;;22.77;100.00;99419.22;6248660;28;20060;-74
2023/08/04 05:50:09;;;;;;;4.57;2.57;;;;;;;22.71;100.00;99424.28;6264353;28;20049;-74
2023/08/04 05:53:10;;;;;;;3.92;2.50;;;;;;;22.89;100.00;99418.53;6248330;28;20049;-73
2023/08/04 05:56:13;;;;;;;3.03;2.00;;;;;;;22.97;100.00;99424.75;6280677;28;20056;-74
2023/08/04 05:59:13;;;;;;;3.22;2.20;;;;;;;23.16;100.00;99424.13;6247271;28;20297;-73
2023/08/04 06:02:16;;;;;;;4.03;2.03;;;;;;;23.29;100.00;99429.59;6247052;28;20049;-73
2023/08/04 06:05:17;;;;;;;2.47;1.95;;;;;;;23.22;100.00;99427.88;6248331;28;20076;-73
2023/08/04 06:08:18;;;;;;;3.70;2.27;;;;;;;23.44;100.00;99429.50;6246940;28;20114;-74
2023/08/04 06:11:19;;;;;;;2.33;2.13;;;;;;;23.41;99.73;99432.56;6248045;28;20084;-73
2023/08/04 06:14:19;;;;;;;3.47;2.07;;;;;;;23.52;98.25;99436.53;6246905;28;20444;-73
2023/08/04 06:17:22;;;;;;;2.93;2.00;;;;;;;23.74;97.36;99440.81;6263407;28;20055;-73
2023/08/04 06:20:24;;;;;;;2.78;1.98;;;;;;;23.68;95.52;99443.41;6247869;28;20045;-73
2023/08/04 06:23:24;;;;;;;3.17;2.00;;;;;;;23.80;92.58;99455.19;6246625;28;20053;-73
2023/08/04 06:26:25;;;;;;;4.00;1.90;;;;;;;24.23;91.70;99462.25;6247756;28;20053;-73
2023/08/04 06:29:26;;;;;;;3.50;1.90;;;;;;;24.24;90.86;99471.91;6246474;28;20056;-73
2023/08/04 06:32:27;;;;;;;5.23;2.40;;;;;;;23.93;89.65;99478.47;6247607;28;20049;-74
2023/08/04 06:35:28;;;;;;;6.30;2.30;;;;;;;24.24;90.10;99474.56;6246190;28;20053;-74
2023/08/04 06:38:29;;;;;;;2.90;2.20;;;;;;;23.99;91.44;99480.34;6247580;28;20065;-73
2023/08/04 06:41:29;;;;;;;2.50;2.07;;;;;;;23.93;91.57;99487.28;6247448;28;20069;-73
2023/08/04 06:44:33;;;;;;;3.13;1.63;;;;;;;24.16;91.89;99478.19;6246324;28;20049;-73
2023/08/04 06:47:37;;;;;;;3.80;2.30;;;;;;;24.39;91.49;99471.75;6247119;28;20065;-73
2023/08/04 06:50:37;;;;;;;2.80;1.90;;;;;;;24.99;87.90;99480.03;6245921;28;20119;-73
2023/08/04 06:53:38;;;;;;;3.27;2.10;;;;;;;25.06;87.97;99476.34;6245990;28;20548;-74
2023/08/04 06:56:39;;;;;;;3.67;2.10;;;;;;;25.14;86.51;99484.16;6246063;28;20128;-74
2023/08/04 06:59:39;;;;;;;3.63;2.23;;;;;;;25.33;85.45;99468.41;6246062;28;20341;-73
2023/08/04 07:02:42;;;;;;;3.23;2.30;;;;;;;25.51;85.31;99455.28;6261695;28;20421;-73
2023/08/04 07:05:42;;;;;;;2.58;2.13;;;;;;;25.45;86.07;99453.44;6245767;28;20060;-73
2023/08/04 07:08:43;;;;;;;4.03;2.67;;;;;;;25.59;84.08;99453.41;6246744;28;20049;-74
2023/08/04 07:11:44;;;;;;;3.57;2.50;;;;;;;25.29;87.36;99448.50;6245767;28;20060;-74
2023/08/04 07:14:44;;;;;;;3.57;2.77;;;;;;;25.31;86.58;99447.25;6246758;28;20148;-73
2023/08/04 07:17:45;;;;;;;5.37;2.70;;;;;;;25.45;88.03;99440.09;6245392;28;20638;-74
2023/08/04 07:20:46;;;;;;;4.47;3.20;;;;;;;25.66;85.69;99430.22;6245852;28;20481;-74
2023/08/04 07:23:47;;;;;;;4.50;3.37;;;;;;;25.81;86.20;99438.81;6246815;28;20669;-74
2023/08/04 07:26:47;;;;;;;6.27;3.00;;;;;;;25.90;84.85;99439.44;6245532;28;20136;-74
2023/08/04 07:29:48;;;;;;;5.60;3.37;;;;;;;25.95;83.72;99441.50;6245294;28;20115;-74
2023/08/04 07:32:49;;;;;;;4.35;3.20;;;;;;;25.88;83.60;99444.13;6245464;28;20409;-74
2023/08/04 07:35:54;;;;;;;7.87;3.33;;;;;;;26.48;82.64;99452.03;6246299;28;20191;-74
2023/08/04 07:38:55;;;;;;;3.45;3.00;;;;;;;26.57;81.74;99452.63;6246556;28;20056;-73
2023/08/04 07:41:56;;;;;;;4.45;3.25;;;;;;;26.78;80.64;99457.69;6245223;28;20088;-73
2023/08/04 07:44:57;;;;;;;4.78;3.15;;;;;;;27.30;77.04;99458.44;6245328;28;20045;-74
2023/08/04 07:47:58;;;;;;;4.77;3.27;;;;;;;27.43;74.62;99472.78;6246305;28;20053;-74
2023/08/04 07:51:01;;;;;;;4.57;3.03;;;;;;;27.59;73.96;99477.56;6246282;28;20049;-74
2023/08/04 07:54:01;;;;;;;4.03;3.08;;;;;;;27.69;71.67;99469.03;6246303;28;20307;-73
2023/08/04 07:57:06;;;;;;;4.85;3.40;;;;;;;27.72;72.50;99466.75;6245222;28;20067;-73
2023/08/04 08:00:07;;;;;;;3.65;3.00;;;;;;;28.01;73.14;99467.13;6261636;28;20077;-74
2023/08/04 08:03:08;;;;;;;4.88;3.22;;;;;;;28.02;72.41;99462.56;6261449;28;20425;-74
2023/08/04 08:06:11;;;;;;;5.67;3.27;;;;;;;27.35;74.04;99462.31;6261539;28;20061;-74
2023/08/04 08:09:12;;;;;;;3.88;3.05;;;;;;;27.78;74.42;99461.53;6244718;28;20612;-74
2023/08/04 08:12:12;;;;;;;4.13;3.10;;;;;;;28.17;72.99;99451.47;6245940;28;20132;-71
2023/08/04 08:15:13;;;;;;;6.63;3.20;;;;;;;27.81;71.82;99461.91;6247157;28;20068;-71
2023/08/04 08:18:14;;;;;;;4.05;3.08;;;;;;;27.49;73.63;99458.50;6249800;28;20061;-72
2023/08/04 08:21:14;;;;;;;7.70;2.80;;;;;;;28.06;70.37;99466.44;6250711;28;20045;-71
2023/08/04 08:24:15;;;;;;;3.33;2.80;;;;;;;28.10;69.07;99463.09;6250760;28;20050;-71
2023/08/04 08:27:16;;;;;;;6.38;3.05;;;;;;;28.31;69.73;99466.38;6250467;28;20568;-71
2023/08/04 08:30:17;;;;;;;4.30;3.00;;;;;;;28.90;68.32;99472.91;6249168;28;20052;-71
2023/08/04 08:33:17;;;;;;;6.75;3.35;;;;;;;29.07;67.74;99475.75;6250563;28;20053;-71
2023/08/04 08:36:19;;;;;;;5.03;3.30;;;;;;;29.22;64.76;99469.16;6248877;28;20053;-71
2023/08/04 08:39:20;;;;;;;;;;;;;;;29.33;65.40;99471.06;6250798;28;20050;-71
2023/08/04 08:42:25;;;;;;;5.28;2.70;;;;;;;29.28;67.35;99463.72;6282221;28;19983;-71
2023/08/04 08:45:30;;;;;;;3.88;2.97;;;;;;;29.26;65.22;99448.84;6249056;28;20052;-71
2023/08/04 08:48:36;;;;;;;2.55;2.35;;;;;;;29.05;65.01;99460.91;6249815;28;20520;-72
2023/08/04 08:51:42;;;;;;;3.92;2.70;;;;;;;28.81;66.62;99449.31;6248896;28;20052;-71
2023/08/04 08:54:44;;;;;;;6.15;2.95;;;;;;;29.18;63.52;99457.25;6248740;28;20056;-71
2023/08/04 08:57:45;;;;;;;5.07;2.78;;;;;;;29.53;64.92;99449.25;6248649;28;20049;-71
2023/08/04 09:00:46;;;;;;;3.28;2.22;;;;;;;29.95;64.03;99440.28;6248618;28;20110;-72
2023/08/04 09:03:47;;;;;;;4.15;2.85;;;;;;;29.84;62.54;99442.75;6249873;28;20128;-71
2023/08/04 09:06:47;;;;;;;8.63;2.85;;;;;;;30.01;63.03;99448.22;6249763;28;20060;-71
2023/08/04 09:09:48;;;;;;;3.88;2.75;;;;;;;30.12;62.51;99436.66;6249369;28;20060;-71
2023/08/04 09:12:54;;;;;;;4.57;3.08;;;;;;;30.47;62.03;99446.50;6249389;28;20116;-71
2023/08/04 09:15:58;;;;;;;7.07;3.00;;;;;;;30.54;61.65;99443.69;6248365;28;20123;-71
2023/08/04 09:19:03;;;;;;;3.65;2.72;;;;;;;30.45;60.32;99445.94;6248250;28;20064;-71
2023/08/04 09:22:06;;;;;;;3.90;3.05;;;;;;;29.97;61.72;99440.88;6249164;28;20045;-71
2023/08/04 09:25:07;;;;;;;3.30;2.70;;;;;;;29.76;63.46;99435.03;6247946;28;20421;-71
2023/08/04 09:28:14;;;;;;;;;;;;;;;29.98;63.62;99439.81;6264350;28;20056;-71
2023/08/04 09:31:15;;;;;;;3.72;2.80;;;;;;;29.93;63.80;99440.50;6247930;28;19967;-72
2023/08/04 09:34:18;;;;;;;4.72;2.45;;;;;;;30.05;64.50;99441.31;6247624;28;20053;-71
2023/08/04 09:37:19;;;;;;;4.32;2.85;;;;;;;30.19;64.93;99427.63;6248723;28;20144;-72
2023/08/04 09:40:20;;;;;;;5.25;3.03;;;;;;;30.16;62.38;99434.28;6264080;28;20059;-71
2023/08/04 09:43:21;;;;;;;3.20;2.67;;;;;;;30.71;65.39;99428.41;6248753;28;20063;-71
2023/08/04 09:46:23;;;;;;;4.25;3.35;;;;;;;30.97;63.12;99428.91;6248644;28;20417;-71
2023/08/04 09:49:25;;;;;;;13.55;3.40;;;;;;;31.22;62.06;99436.59;6247319;28;20481;-71
2023/08/04 09:52:28;;;;;;;;;;;;;;;31.42;61.74;99419.94;6248855;28;20064;-71
2023/08/04 09:55:29;;;;;;;4.07;3.20;;;;;;;31.24;60.77;99421.00;6248685;28;20258;-72
2023/08/04 09:58:30;;;;;;;3.80;2.92;;;;;;;31.23;61.47;99427.44;6247003;28;20053;-71
2023/08/04 10:01:31;;;;;;;4.32;3.20;;;;;;;31.07;59.52;99418.31;6248234;28;20048;-71
2023/08/04 10:04:33;;;;;;;3.58;2.90;;;;;;;31.53;62.06;99423.63;6247044;28;20132;-71
2023/08/04 10:07:34;;;;;;;3.83;2.88;;;;;;;31.67;61.58;99411.44;6248134;28;20099;-71
2023/08/04 10:10:35;;;;;;;4.28;2.90;;;;;;;31.87;62.38;99418.19;6248242;28;20045;-71
2023/08/04 10:13:40;;;;;;;3.33;3.00;;;;;;;32.10;59.68;99415.28;6263461;28;20054;-72
2023/08/04 10:16:43;;;;;;;5.68;2.95;;;;;;;32.32;60.17;99409.88;6247933;28;20558;-71
2023/08/04 10:19:44;;;;;;;5.13;3.20;;;;;;;32.42;59.30;99403.78;6246741;28;20061;-71
2023/08/04 10:22:48;;;;;;;4.30;2.97;;;;;;;32.47;62.76;99395.75;6246571;28;20053;-71
2023/08/04 10:26:03;;;;;;;3.53;2.72;;;;;;;32.41;61.53;99395.94;6247691;28;20521;-72
2023/08/04 10:29:03;;;;;;;4.60;2.92;;;;;;;32.17;60.30;99393.50;6279869;28;20064;-71
2023/08/04 10:32:07;;;;;;;;;;;;;;;32.67;61.44;99397.03;6248028;28;20398;-71
2023/08/04 10:35:28;;;;;;;3.38;2.90;;;;;;;32.60;57.62;99397.25;6247510;28;19968;-71
2023/08/04 10:38:43;;;;;;;4.57;2.80;;;;;;;32.53;58.13;99400.13;6245157;28;20060;-71
2023/08/04 10:41:46;;;;;;;4.05;2.88;;;;;;;32.54;56.78;99406.38;6246492;28;20093;-71
2023/08/04 10:45:04;;;;;;;3.58;2.90;;;;;;;32.21;57.51;99399.22;6247390;28;20045;-72
2023/08/04 10:48:05;;;;;;;3.97;2.97;;;;;;;32.32;59.49;99401.78;6247468;28;20045;-71
2023/08/04 10:51:10;;;;;;;4.45;3.25;;;;;;;32.90;57.09;99402.13;6246931;28;20187;-71
2023/08/04 10:54:11;;;;;;;4.53;3.13;;;;;;;33.29;57.73;99387.59;6246385;28;20052;-71
2023/08/04 10:57:21;;;;;;;;;;;;;;;33.80;55.94;99384.44;6262969;28;20053;-71
2023/08/04 11:00:22;;;;;;;2.92;2.65;;;;;;;33.88;51.10;99378.53;6246100;28;19924;-71
2023/08/04 11:03:30;;;;;;;;;;;;;;;33.86;55.31;99381.50;6246355;28;20115;-71
2023/08/04 11:06:31;;;;;;;4.65;3.33;;;;;;;34.31;54.03;99371.94;6245687;28;19999;-71
2023/08/04 11:09:32;;;;;;;7.10;3.05;;;;;;;34.21;53.37;99380.03;6245719;28;20099;-71
2023/08/04 11:12:35;;;;;;;5.07;2.97;;;;;;;34.23;54.88;99377.88;6247190;28;20118;-71
2023/08/04 11:15:43;;;;;;;3.47;2.92;;;;;;;34.05;52.44;99371.00;6246766;28;20515;-72
2023/08/04 11:18:43;;;;;;;5.80;3.20;;;;;;;34.08;53.58;99362.38;6261927;28;20145;-72
2023/08/04 11:21:44;;;;;;;4.80;3.10;;;;;;;34.29;51.54;99359.75;6245534;28;20049;-71
2023/08/04 11:24:47;;;;;;;4.10;3.03;;;;;;;34.18;51.85;99349.97;6261784;28;20056;-71
2023/08/04 11:27:48;;;;;;;5.95;3.28;;;;;;;34.47;54.54;99358.44;6246705;28;20049;-71
2023/08/04 11:30:49;;;;;;;3.72;3.20;;;;;;;34.70;53.83;99357.16;6246311;28;20045;-71
2023/08/04 11:33:50;;;;;;;4.53;2.97;;;;;;;34.22;53.52;99356.47;6246645;28;20408;-71
2023/08/04 11:36:51;;;;;;;4.88;3.42;;;;;;;34.53;53.25;99360.06;6245076;28;20092;-71
2023/08/04 11:39:52;;;;;;;4.13;3.17;;;;;;;34.76;50.93;99366.06;6245007;28;20050;-72
2023/08/04 11:42:56;;;;;;;7.07;2.97;;;;;;;34.28;51.77;99358.13;6245286;28;20045;-72
2023/08/04 11:45:58;;;;;;;4.95;2.88;;;;;;;34.30;54.22;99364.88;6245098;28;20057;-71
2023/08/04 11:49:03;;;;;;;3.88;2.83;;;;;;;34.72;54.55;99365.81;6246030;28;20076;-71
2023/08/04 11:52:09;;;;;;;5.65;3.15;;;;;;;34.85;49.15;99364.47;6249953;28;20143;-72
2023/08/04 11:55:10;;;;;;;5.32;3.50;;;;;;;35.04;51.58;99372.88;6250193;28;20041;-71
2023/08/04 11:58:10;;;;;;;5.45;3.42;;;;;;;35.25;52.92;99363.69;6250004;28;20056;-72
2023/08/04 12:01:26;;;;;;;3.78;3.08;;;;;;;35.16;51.55;99369.91;6251288;28;20048;-71
2023/08/04 12:04:30;;;;;;;3.55;2.95;;;;;;;35.25;51.77;99354.72;6250988;28;20049;-71
2023/08/04 12:07:30;;;;;;;3.92;3.20;;;;;;;35.25;52.28;99360.97;6251129;28;20535;-71
2023/08/04 12:10:31;;;;;;;5.57;3.15;;;;;;;35.18;50.65;99362.31;6250667;28;20050;-71
2023/08/04 12:13:35;;;;;;;3.22;2.88;;;;;;;35.06;54.63;99354.44;6249922;28;20485;-75
2023/08/04 12:16:53;;;;;;;5.78;3.15;;;;;;;35.26;54.31;99357.16;6249639;28;20655;-75
2023/08/04 12:19:54;;;;;;;4.40;3.08;;;;;;;35.47;51.51;99359.81;6249735;28;20068;-74
2023/08/04 12:22:54;;;;;;;3.95;2.97;;;;;;;35.34;50.00;99352.28;6249605;28;20049;-75
2023/08/04 12:25:58;;;;;;;4.05;2.97;;;;;;;35.40;50.18;99354.69;6249621;28;20104;-74
2023/08/04 12:28:59;;;;;;;5.47;3.15;;;;;;;35.55;53.24;99358.47;6249354;28;20060;-75
2023/08/04 12:32:00;;;;;;;3.65;3.15;;;;;;;35.60;50.02;99344.88;6265802;28;20107;-74
2023/08/04 12:35:00;;;;;;;5.28;3.28;;;;;;;35.36;50.70;99345.47;6250253;28;20084;-74
2023/08/04 12:38:04;;;;;;;4.15;3.03;;;;;;;35.46;49.66;99347.34;6249059;28;20060;-75
2023/08/04 12:41:05;;;;;;;4.10;3.30;;;;;;;35.65;50.08;99345.69;6250535;28;20152;-75
2023/08/04 12:44:09;;;;;;;3.30;3.00;;;;;;;35.22;50.06;99344.44;6265568;28;20472;-74
2023/08/04 12:47:10;;;;;;;3.80;3.22;;;;;;;35.27;49.81;99338.97;6250334;28;20049;-74
2023/08/04 12:50:11;;;;;;;3.03;2.70;;;;;;;34.96;51.84;99336.28;6248769;28;20049;-74
2023/08/04 12:53:14;;;;;;;5.00;2.90;;;;;;;35.21;50.07;99338.19;6248980;28;20049;-75
2023/08/04 12:56:15;;;;;;;3.75;3.00;;;;;;;34.87;49.87;99332.50;6249865;28;20050;-75
2023/08/04 12:59:15;;;;;;;3.85;2.95;;;;;;;34.85;52.23;99330.06;6248595;28;20437;-74
2023/08/04 13:02:16;;;;;;;4.30;2.95;;;;;;;35.04;51.67;99324.88;6248912;28;20064;-75
2023/08/04 13:05:17;;;;;;;3.83;3.08;;;;;;;35.23;50.92;99332.47;6249641;28;20045;-74
2023/08/04 13:08:18;;;;;;;4.38;3.22;;;;;;;35.61;51.28;99320.19;6249621;28;20091;-75
2023/08/04 13:11:21;;;;;;;3.75;3.20;;;;;;;35.12;52.20;99327.03;6249461;28;20564;-75
2023/08/04 13:14:24;;;;;;;5.18;3.50;;;;;;;35.36;51.02;99320.28;6249804;28;20171;-75
2023/08/04 13:17:24;;;;;;;3.97;3.17;;;;;;;34.54;53.32;99317.56;6248230;28;20104;-75
2023/08/04 13:20:27;;;;;;;4.35;3.10;;;;;;;34.22;52.18;99318.59;6264647;28;20140;-75
2023/08/04 13:23:30;;;;;;;3.80;3.30;;;;;;;34.43;53.50;99320.25;6249130;28;20409;-75
2023/08/04 13:26:34;;;;;;;4.70;3.25;;;;;;;33.63;53.43;99317.00;6249245;28;20516;-75
2023/08/04 13:29:36;;;;;;;4.50;3.30;;;;;;;33.61;52.64;99319.16;6248027;28;20144;-74
2023/08/04 13:32:39;;;;;;;5.40;3.50;;;;;;;33.67;54.99;99318.91;6249224;28;20045;-75
2023/08/04 13:35:40;;;;;;;6.50;3.53;;;;;;;33.95;56.11;99311.44;6247700;28;20085;-75
2023/08/04 13:38:43;;;;;;;5.45;3.22;;;;;;;34.46;55.09;99313.50;6247817;28;20068;-74
2023/08/04 13:41:44;;;;;;;3.75;3.05;;;;;;;34.90;52.64;99310.25;6248951;28;20068;-74
2023/08/04 13:44:45;;;;;;;5.40;3.33;;;;;;;34.80;53.97;99310.25;6264098;28;20137;-75
2023/08/04 13:47:47;;;;;;;3.72;2.88;;;;;;;34.80;54.32;99310.25;6247549;28;20180;-75
2023/08/04 13:50:50;;;;;;;3.22;2.90;;;;;;;33.99;53.81;99315.25;6248399;28;20596;-75
2023/08/04 13:53:53;;;;;;;4.75;3.60;;;;;;;34.35;54.70;99311.84;6247696;28;20049;-72
2023/08/04 13:56:53;;;;;;;6.55;3.55;;;;;;;34.08;55.33;99318.25;6263862;28;20054;-71
2023/08/04 13:59:54;;;;;;;3.85;2.90;;;;;;;34.03;55.20;99312.81;6264050;28;20054;-71
2023/08/04 14:02:55;;;;;;;4.18;3.42;;;;;;;34.35;57.26;99311.84;6247019;28;20099;-71
2023/08/04 14:06:00;;;;;;;4.43;3.33;;;;;;;34.56;58.43;99308.06;6248506;28;20485;-71
2023/08/04 14:09:02;;;;;;;4.68;3.33;;;;;;;34.33;55.91;99295.88;6248253;28;20145;-72
2023/08/04 14:12:04;;;;;;;6.80;3.42;;;;;;;34.56;57.54;99291.03;6248354;28;20100;-72
2023/08/04 14:15:05;;;;;;;4.10;3.20;;;;;;;34.22;54.86;99292.31;6246990;28;20049;-71
2023/08/04 14:18:07;;;;;;;5.38;3.40;;;;;;;34.29;55.75;99294.78;6247838;28;20084;-71